createdAt,value
2023-01-09T00:00:48.380Z,7.70
2023-01-09T00:03:15.311Z,7.80
2023-01-09T00:05:42.176Z,7.80
2023-01-09T00:08:09.177Z,7.80
2023-01-09T00:10:36.013Z,7.70
2023-01-09T00:13:02.908Z,7.80
2023-01-09T00:15:29.813Z,7.80
2023-01-09T00:17:56.767Z,7.80
2023-01-09T00:20:23.531Z,7.80
2023-01-09T00:22:50.377Z,7.80
2023-01-09T00:25:17.233Z,7.70
2023-01-09T00:27:44.109Z,7.70
2023-01-09T00:30:11.290Z,7.70
2023-01-09T00:32:38.075Z,7.80
2023-01-09T00:35:05.076Z,7.80
2023-01-09T00:37:31.940Z,7.80
2023-01-09T00:39:58.729Z,7.70
2023-01-09T00:42:28.099Z,7.70
2023-01-09T00:44:57.569Z,7.70
2023-01-09T00:47:31.246Z,7.80
2023-01-09T00:49:59.637Z,7.80
2023-01-09T00:52:26.525Z,7.70
2023-01-09T00:54:53.439Z,7.70
2023-01-09T00:57:20.371Z,7.70
2023-01-09T00:59:47.349Z,7.80
2023-01-09T01:02:14.374Z,7.70
2023-01-09T01:04:59.849Z,7.70
2023-01-09T01:07:38.958Z,7.80
2023-01-09T01:10:07.298Z,7.80
2023-01-09T01:12:34.484Z,7.70
2023-01-09T01:15:01.426Z,7.80
2023-01-09T01:17:28.224Z,7.70
2023-01-09T01:19:55.407Z,7.80
2023-01-09T01:22:22.256Z,7.70
2023-01-09T01:24:49.272Z,7.70
2023-01-09T01:27:16.123Z,7.60
2023-01-09T01:29:42.943Z,7.70
2023-01-09T01:32:09.885Z,7.70
2023-01-09T01:34:36.747Z,7.60
2023-01-09T01:37:03.535Z,7.70
2023-01-09T01:39:30.422Z,7.70
2023-01-09T01:41:57.392Z,7.70
2023-01-09T01:44:42.873Z,7.70
2023-01-09T01:47:09.777Z,7.70
2023-01-09T01:49:36.715Z,7.70
2023-01-09T01:52:03.629Z,7.70
2023-01-09T01:54:31.530Z,7.80
2023-01-09T01:57:01.273Z,7.70
2023-01-09T01:59:32.013Z,7.70
2023-01-09T02:02:00.038Z,7.80
2023-01-09T02:04:27.462Z,7.70
2023-01-09T02:06:55.968Z,7.70
2023-01-09T02:09:25.244Z,7.70
2023-01-09T02:11:53.005Z,7.70
2023-01-09T02:14:22.355Z,7.80
2023-01-09T02:17:15.552Z,7.70
2023-01-09T02:19:42.392Z,7.70
2023-01-09T02:22:23.242Z,7.60
2023-01-09T02:25:08.389Z,7.60
2023-01-09T02:27:40.999Z,7.70
2023-01-09T02:30:10.745Z,7.70
2023-01-09T02:32:42.121Z,7.60
2023-01-09T02:35:32.812Z,7.60
2023-01-09T02:38:06.626Z,7.70
2023-01-09T02:40:41.494Z,7.60
2023-01-09T02:43:08.665Z,7.60
2023-01-09T02:45:35.596Z,7.70
2023-01-09T02:48:02.419Z,7.60
2023-01-09T02:50:49.949Z,7.70
2023-01-09T02:53:19.620Z,7.60
2023-01-09T02:56:09.427Z,7.60
2023-01-09T02:58:36.316Z,7.60
2023-01-09T03:01:12.442Z,7.70
2023-01-09T03:03:57.936Z,7.50
2023-01-09T03:06:31.540Z,7.50
2023-01-09T03:09:01.335Z,7.60
2023-01-09T03:11:31.128Z,7.60
2023-01-09T03:14:01.433Z,7.60
2023-01-09T03:16:29.892Z,7.60
2023-01-09T03:18:57.338Z,7.70
2023-01-09T03:21:24.489Z,7.70
2023-01-09T03:23:51.358Z,7.70
2023-01-09T03:26:18.627Z,7.80
2023-01-09T03:28:46.169Z,7.80
2023-01-09T03:31:13.643Z,7.90
2023-01-09T03:33:40.983Z,7.90
2023-01-09T03:36:08.631Z,8.00
2023-01-09T03:38:35.628Z,8.00
2023-01-09T03:41:02.531Z,8.00
2023-01-09T03:43:29.572Z,8.20
2023-01-09T03:45:56.924Z,8.20
2023-01-09T03:48:23.897Z,8.10
2023-01-09T03:50:51.496Z,8.00
2023-01-09T03:53:18.882Z,7.80
2023-01-09T03:55:46.877Z,7.70
2023-01-09T03:58:14.562Z,7.50
2023-01-09T04:00:41.697Z,7.40
2023-01-09T04:03:09.205Z,7.40
2023-01-09T04:05:36.144Z,7.30
2023-01-09T04:08:03.052Z,7.10
2023-01-09T04:10:29.850Z,7.00
2023-01-09T04:12:56.725Z,6.90
2023-01-09T04:15:23.761Z,6.80
2023-01-09T04:17:50.562Z,6.80
2023-01-09T04:20:17.506Z,6.80
2023-01-09T04:22:44.680Z,6.80
2023-01-09T04:25:11.922Z,6.70
2023-01-09T04:27:38.804Z,6.70
2023-01-09T04:30:05.965Z,6.70
2023-01-09T04:32:32.788Z,6.70
2023-01-09T04:34:59.617Z,6.70
2023-01-09T04:37:26.514Z,6.70
2023-01-09T04:39:55.985Z,6.70
2023-01-09T04:42:23.220Z,6.70
2023-01-09T04:44:53.691Z,6.60
2023-01-09T04:47:21.051Z,6.70
2023-01-09T04:49:47.852Z,6.60
2023-01-09T04:52:14.734Z,6.50
2023-01-09T04:54:41.648Z,6.50
2023-01-09T04:57:08.583Z,6.50
2023-01-09T04:59:35.728Z,6.40
2023-01-09T05:02:02.857Z,6.40
2023-01-09T05:04:29.946Z,6.40
2023-01-09T05:06:56.807Z,6.50
2023-01-09T05:09:23.728Z,6.40
2023-01-09T05:11:50.547Z,6.40
2023-01-09T05:14:17.616Z,6.40
2023-01-09T05:16:44.475Z,6.40
2023-01-09T05:19:11.512Z,6.40
2023-01-09T05:21:38.789Z,6.40
2023-01-09T05:24:05.743Z,6.40
2023-01-09T05:26:32.611Z,6.30
2023-01-09T05:28:59.467Z,6.40
2023-01-09T05:31:27.544Z,6.30
2023-01-09T05:33:54.521Z,6.40
2023-01-09T05:36:21.415Z,6.30
2023-01-09T05:38:48.367Z,6.30
2023-01-09T05:41:15.247Z,6.30
2023-01-09T05:43:42.136Z,6.20
2023-01-09T05:46:09.134Z,6.20
2023-01-09T05:48:36.345Z,6.20
2023-01-09T05:51:03.510Z,6.20
2023-01-09T05:53:30.328Z,6.30
2023-01-09T05:55:57.234Z,6.20
2023-01-09T05:58:24.087Z,6.10
2023-01-09T06:00:52.528Z,6.10
2023-01-09T06:03:19.638Z,6.10
2023-01-09T06:05:46.442Z,6.20
2023-01-09T06:08:13.395Z,6.10
2023-01-09T06:10:40.236Z,6.10
2023-01-09T06:13:07.179Z,6.10
2023-01-09T06:15:34.030Z,6.20
2023-01-09T06:18:00.924Z,6.10
2023-01-09T06:20:27.823Z,6.20
2023-01-09T06:22:54.633Z,6.20
2023-01-09T06:25:21.508Z,6.20
2023-01-09T06:27:48.914Z,6.10
2023-01-09T06:30:15.800Z,6.00
2023-01-09T06:32:42.834Z,6.10
2023-01-09T06:35:09.706Z,6.10
2023-01-09T06:37:36.584Z,6.20
2023-01-09T06:40:03.589Z,6.20
2023-01-09T06:42:30.622Z,6.20
2023-01-09T06:44:57.577Z,6.20
2023-01-09T06:47:24.381Z,6.30
2023-01-09T06:49:51.261Z,6.40
2023-01-09T06:52:18.200Z,6.30
2023-01-09T06:54:45.004Z,6.40
2023-01-09T06:57:12.023Z,6.30
2023-01-09T06:59:38.837Z,6.40
2023-01-09T07:02:06.307Z,6.40
2023-01-09T07:04:33.258Z,6.40
2023-01-09T07:07:00.107Z,6.40
2023-01-09T07:09:27.017Z,6.30
2023-01-09T07:11:53.905Z,6.20
2023-01-09T07:14:20.764Z,6.30
2023-01-09T07:16:47.580Z,6.30
2023-01-09T07:19:14.448Z,6.40
2023-01-09T07:21:41.317Z,6.40
2023-01-09T07:24:08.163Z,6.50
2023-01-09T07:26:35.069Z,6.60
2023-01-09T07:29:01.902Z,6.60
2023-01-09T07:31:29.029Z,6.60
2023-01-09T07:33:55.911Z,6.60
2023-01-09T07:36:22.789Z,6.70
2023-01-09T07:38:49.637Z,6.70
2023-01-09T07:41:16.493Z,6.80
2023-01-09T07:43:43.370Z,6.70
2023-01-09T07:46:10.260Z,6.60
2023-01-09T07:48:37.120Z,6.70
2023-01-09T07:51:04.052Z,6.60
2023-01-09T07:53:30.920Z,6.70
2023-01-09T07:55:57.816Z,6.80
2023-01-09T07:58:24.687Z,6.80
2023-01-09T08:00:51.701Z,6.90
2023-01-09T08:03:18.629Z,6.90
2023-01-09T08:05:45.836Z,6.90
2023-01-09T08:08:14.368Z,7.00
2023-01-09T08:10:41.397Z,7.00
2023-01-09T08:13:08.281Z,7.10
2023-01-09T08:15:35.689Z,7.10
2023-01-09T08:18:02.591Z,7.20
2023-01-09T08:20:29.411Z,7.20
2023-01-09T08:22:56.892Z,7.20
2023-01-09T08:25:24.010Z,7.20
2023-01-09T08:27:50.894Z,7.20
2023-01-09T08:30:18.282Z,7.10
2023-01-09T08:32:48.677Z,7.00
2023-01-09T08:35:15.733Z,7.10
2023-01-09T08:37:46.424Z,7.10
2023-01-09T08:40:14.090Z,7.10
2023-01-09T08:43:00.142Z,7.20
2023-01-09T08:45:45.594Z,7.20
2023-01-09T08:48:12.601Z,7.30
2023-01-09T08:50:39.544Z,7.40
2023-01-09T08:53:06.439Z,7.40
2023-01-09T08:55:33.330Z,7.50
2023-01-09T08:58:00.280Z,7.60
2023-01-09T09:00:27.785Z,7.60
2023-01-09T09:02:55.796Z,7.60
2023-01-09T09:05:23.487Z,7.70
2023-01-09T09:07:50.818Z,7.80
2023-01-09T09:10:17.937Z,7.90
2023-01-09T09:12:45.031Z,8.00
2023-01-09T09:15:24.287Z,8.20
2023-01-09T09:17:53.611Z,8.30
2023-01-09T09:20:21.400Z,8.40
2023-01-09T09:22:48.689Z,8.40
2023-01-09T09:25:17.626Z,8.40
2023-01-09T09:27:44.567Z,8.40
2023-01-09T09:30:12.695Z,8.30
2023-01-09T09:32:39.828Z,8.40
2023-01-09T09:35:06.992Z,8.40
2023-01-09T09:37:34.101Z,8.30
2023-01-09T09:40:09.677Z,8.20
2023-01-09T09:43:02.902Z,8.20
2023-01-09T09:45:35.593Z,8.30
2023-01-09T09:48:05.584Z,8.30
2023-01-09T09:50:36.124Z,8.40
2023-01-09T09:53:03.085Z,8.40
2023-01-09T09:55:31.903Z,8.50
2023-01-09T09:58:00.062Z,8.40
2023-01-09T10:00:27.139Z,8.40
2023-01-09T10:02:54.042Z,8.40
2023-01-09T10:05:56.318Z,8.50
2023-01-09T10:08:28.883Z,8.50
2023-01-09T10:10:56.154Z,8.60
2023-01-09T10:13:42.741Z,8.50
2023-01-09T10:16:33.014Z,8.50
2023-01-09T10:19:02.985Z,8.60
2023-01-09T10:21:36.435Z,8.60
2023-01-09T10:24:03.243Z,8.80
2023-01-09T10:26:38.160Z,9.10
2023-01-09T10:29:13.970Z,9.10
2023-01-09T10:31:40.807Z,9.00
2023-01-09T10:34:28.063Z,8.90
2023-01-09T10:37:04.094Z,8.80
2023-01-09T10:40:00.441Z,8.70
2023-01-09T10:42:30.693Z,8.50
2023-01-09T10:45:01.986Z,8.50
2023-01-09T10:47:32.390Z,8.50
2023-01-09T10:49:59.806Z,8.50
2023-01-09T10:52:33.679Z,8.50
2023-01-09T10:55:20.946Z,8.40
2023-01-09T10:57:50.748Z,8.50
2023-01-09T11:00:21.041Z,8.60
2023-01-09T11:02:49.233Z,8.60
2023-01-09T11:05:18.567Z,8.60
2023-01-09T11:07:47.882Z,8.70
2023-01-09T11:10:15.481Z,9.10
2023-01-09T11:12:42.625Z,9.40
2023-01-09T11:15:19.539Z,9.50
2023-01-09T11:17:47.389Z,9.40
2023-01-09T11:20:23.413Z,9.30
2023-01-09T11:22:51.391Z,9.00
2023-01-09T11:25:19.361Z,8.90
2023-01-09T11:28:01.222Z,8.90
2023-01-09T11:30:28.540Z,8.80
2023-01-09T11:32:56.329Z,8.70
2023-01-09T11:35:28.135Z,8.40
2023-01-09T11:38:06.068Z,8.40
2023-01-09T11:40:43.668Z,8.50
2023-01-09T11:43:15.380Z,8.60
2023-01-09T11:45:50.226Z,8.80
2023-01-09T11:48:29.728Z,8.90
2023-01-09T11:50:58.059Z,9.00
2023-01-09T11:53:25.346Z,9.20
2023-01-09T11:56:01.307Z,9.50
2023-01-09T11:58:33.504Z,9.80
2023-01-09T12:01:03.132Z,9.80
2023-01-09T12:03:42.060Z,9.60
2023-01-09T12:06:08.930Z,9.10
2023-01-09T12:08:41.614Z,8.90
2023-01-09T12:11:23.309Z,8.70
2023-01-09T12:14:11.352Z,8.60
2023-01-09T12:16:46.232Z,8.40
2023-01-09T12:19:28.507Z,8.10
2023-01-09T12:22:02.540Z,7.90
2023-01-09T12:24:43.702Z,7.60
2023-01-09T12:27:14.647Z,7.40
2023-01-09T12:29:53.254Z,7.30
2023-01-09T12:32:20.202Z,7.30
2023-01-09T12:34:47.018Z,7.30
2023-01-09T12:37:13.970Z,7.30
2023-01-09T12:39:47.053Z,7.30
2023-01-09T12:42:24.050Z,7.30
2023-01-09T12:44:53.221Z,7.30
2023-01-09T12:47:29.136Z,7.30
2023-01-09T12:50:04.812Z,7.50
2023-01-09T12:52:34.837Z,7.90
2023-01-09T12:55:03.494Z,8.30
2023-01-09T12:57:34.563Z,8.20
2023-01-09T13:00:04.697Z,8.00
2023-01-09T13:02:34.144Z,7.80
2023-01-09T13:05:10.799Z,7.70
2023-01-09T13:07:46.391Z,7.80
2023-01-09T13:10:19.115Z,7.80
2023-01-09T13:12:48.144Z,7.70
2023-01-09T13:15:26.542Z,7.60
2023-01-09T13:17:55.811Z,7.60
2023-01-09T13:20:25.989Z,7.60
2023-01-09T13:22:54.048Z,7.60
2023-01-09T13:25:31.154Z,7.60
2023-01-09T13:28:05.752Z,7.50
2023-01-09T13:30:49.388Z,7.30
2023-01-09T13:33:16.272Z,7.10
2023-01-09T13:35:56.018Z,7.00
2023-01-09T13:38:27.039Z,7.00
2023-01-09T13:41:23.141Z,6.90
2023-01-09T13:43:58.106Z,6.70
2023-01-09T13:46:34.378Z,6.60
2023-01-09T13:49:02.051Z,6.50
2023-01-09T13:51:38.036Z,6.50
2023-01-09T13:54:04.900Z,6.50
2023-01-09T13:56:31.792Z,6.50
2023-01-09T13:58:59.763Z,6.60
2023-01-09T14:01:37.455Z,6.60
2023-01-09T14:04:10.451Z,6.60
2023-01-09T14:06:37.510Z,6.70
2023-01-09T14:09:19.399Z,6.90
2023-01-09T14:11:47.174Z,7.10
2023-01-09T14:14:33.729Z,7.00
2023-01-09T14:17:03.386Z,7.00
2023-01-09T14:19:33.649Z,7.00
2023-01-09T14:22:00.916Z,7.10
2023-01-09T14:24:32.810Z,7.10
2023-01-09T14:27:00.508Z,7.00
2023-01-09T14:29:36.503Z,7.00
2023-01-09T14:32:22.121Z,6.90
2023-01-09T14:34:56.132Z,6.70
2023-01-09T14:37:23.287Z,6.50
2023-01-09T14:39:50.991Z,6.50
2023-01-09T14:42:22.693Z,6.50
2023-01-09T14:44:55.755Z,6.50
2023-01-09T14:47:31.524Z,6.50
2023-01-09T14:50:00.763Z,6.40
2023-01-09T14:52:27.595Z,6.30
2023-01-09T14:54:57.596Z,6.20
2023-01-09T14:57:31.863Z,6.10
2023-01-09T15:00:03.782Z,6.10
2023-01-09T15:02:32.755Z,6.20
2023-01-09T15:05:10.368Z,6.10
2023-01-09T15:07:44.430Z,6.10
2023-01-09T15:10:19.560Z,6.10
2023-01-09T15:12:47.705Z,6.00
2023-01-09T15:15:15.625Z,6.00
2023-01-09T15:17:45.230Z,6.00
2023-01-09T15:20:18.888Z,6.00
2023-01-09T15:22:51.197Z,6.00
2023-01-09T15:25:45.392Z,6.10
2023-01-09T15:28:28.919Z,6.20
2023-01-09T15:30:57.790Z,6.30
2023-01-09T15:33:25.023Z,6.20
2023-01-09T15:35:52.562Z,6.30
2023-01-09T15:38:23.750Z,6.20
2023-01-09T15:40:54.991Z,6.20
2023-01-09T15:43:22.023Z,6.20
2023-01-09T15:45:49.229Z,6.00
2023-01-09T15:48:22.252Z,6.00
2023-01-09T15:50:50.499Z,5.90
2023-01-09T15:53:18.526Z,5.80
2023-01-09T15:55:47.591Z,5.80
2023-01-09T15:58:31.230Z,5.80
2023-01-09T16:01:00.068Z,5.80
2023-01-09T16:03:27.079Z,5.80
2023-01-09T16:06:05.688Z,5.80
2023-01-09T16:08:34.608Z,5.80
2023-01-09T16:11:06.543Z,5.70
2023-01-09T16:13:37.856Z,5.80
2023-01-09T16:16:04.958Z,5.80
2023-01-09T16:18:37.423Z,5.80
2023-01-09T16:21:05.766Z,6.00
2023-01-09T16:23:34.027Z,6.00
2023-01-09T16:26:03.918Z,5.90
2023-01-09T16:28:30.941Z,5.80
2023-01-09T16:31:08.260Z,5.80
2023-01-09T16:33:35.441Z,5.80
2023-01-09T16:36:04.962Z,5.80
2023-01-09T16:38:31.865Z,5.90
2023-01-09T16:41:18.906Z,5.80
2023-01-09T16:43:46.337Z,6.00
2023-01-09T16:46:13.967Z,6.00
2023-01-09T16:48:41.063Z,6.00
2023-01-09T16:51:13.793Z,6.00
2023-01-09T16:53:40.639Z,5.90
2023-01-09T16:56:27.757Z,6.00
2023-01-09T16:58:54.846Z,6.10
2023-01-09T17:01:22.664Z,6.20
2023-01-09T17:03:50.063Z,6.20
2023-01-09T17:06:28.046Z,6.20
2023-01-09T17:08:55.012Z,6.20
2023-01-09T17:11:23.005Z,6.20
2023-01-09T17:13:50.557Z,6.20
2023-01-09T17:16:18.096Z,6.30
2023-01-09T17:18:45.236Z,6.20
2023-01-09T17:21:19.774Z,6.20
2023-01-09T17:23:47.057Z,6.20
2023-01-09T17:26:39.561Z,6.20
2023-01-09T17:29:06.624Z,6.10
2023-01-09T17:31:33.546Z,6.20
2023-01-09T17:34:00.441Z,6.10
2023-01-09T17:36:27.365Z,6.20
2023-01-09T17:38:56.965Z,6.10
2023-01-09T17:41:24.931Z,6.00
2023-01-09T17:43:52.203Z,6.10
2023-01-09T17:46:24.262Z,6.10
2023-01-09T17:48:53.210Z,6.00
2023-01-09T17:51:20.279Z,6.10
2023-01-09T17:53:47.442Z,6.00
2023-01-09T17:56:25.391Z,5.90
2023-01-09T17:58:52.652Z,5.80
2023-01-09T18:01:19.981Z,5.70
2023-01-09T18:03:48.873Z,5.70
2023-01-09T18:06:17.030Z,5.50
2023-01-09T18:08:44.204Z,5.50
2023-01-09T18:11:14.076Z,5.40
2023-01-09T18:13:41.251Z,5.40
2023-01-09T18:16:16.329Z,5.40
2023-01-09T18:18:44.972Z,5.30
2023-01-09T18:21:14.704Z,5.30
2023-01-09T18:23:41.617Z,5.30
2023-01-09T18:26:09.396Z,5.30
2023-01-09T18:28:37.250Z,5.20
2023-01-09T18:31:04.565Z,5.30
2023-01-09T18:33:31.835Z,5.30
2023-01-09T18:36:05.585Z,5.20
2023-01-09T18:38:33.011Z,5.30
2023-01-09T18:41:00.733Z,5.30
2023-01-09T18:43:27.750Z,5.30
2023-01-09T18:45:54.588Z,5.30
2023-01-09T18:48:21.483Z,5.40
2023-01-09T18:50:48.397Z,5.40
2023-01-09T18:53:15.508Z,5.30
2023-01-09T18:55:42.399Z,5.30
2023-01-09T18:58:09.224Z,5.40
2023-01-09T19:00:36.758Z,5.40
2023-01-09T19:03:03.593Z,5.30
2023-01-09T19:05:31.838Z,5.30
2023-01-09T19:07:58.704Z,5.40
2023-01-09T19:10:25.516Z,5.30
2023-01-09T19:12:52.391Z,5.40
2023-01-09T19:15:19.179Z,5.30
2023-01-09T19:17:46.965Z,5.30
2023-01-09T19:20:13.877Z,5.40
2023-01-09T19:22:40.723Z,5.30
2023-01-09T19:25:07.707Z,5.40
2023-01-09T19:27:34.573Z,5.40
2023-01-09T19:30:01.356Z,5.30
2023-01-09T19:32:28.207Z,5.40
2023-01-09T19:34:54.989Z,5.30
2023-01-09T19:37:21.981Z,5.40
2023-01-09T19:39:48.893Z,5.40
2023-01-09T19:42:16.396Z,5.40
2023-01-09T19:44:43.443Z,5.40
2023-01-09T19:47:12.078Z,5.40
2023-01-09T19:49:39.069Z,5.40
2023-01-09T19:52:05.965Z,5.40
2023-01-09T19:54:32.956Z,5.30
2023-01-09T19:56:59.823Z,5.30
2023-01-09T19:59:26.693Z,5.30
2023-01-09T20:01:55.245Z,5.40
2023-01-09T20:04:23.396Z,5.40
2023-01-09T20:06:50.395Z,5.40
2023-01-09T20:09:18.535Z,5.40
2023-01-09T20:11:45.429Z,5.40
2023-01-09T20:14:13.804Z,5.40
2023-01-09T20:16:41.152Z,5.40
2023-01-09T20:19:10.198Z,5.40
2023-01-09T20:21:37.263Z,5.40
2023-01-09T20:24:05.378Z,5.40
2023-01-09T20:26:33.537Z,5.40
2023-01-09T20:29:00.746Z,5.30
2023-01-09T20:31:28.659Z,5.30
2023-01-09T20:33:55.582Z,5.40
2023-01-09T20:36:27.528Z,5.40
2023-01-09T20:38:55.322Z,5.40
2023-01-09T20:41:22.861Z,5.40
2023-01-09T20:43:49.797Z,5.50
2023-01-09T20:46:16.871Z,5.40
2023-01-09T20:48:43.750Z,5.40
2023-01-09T20:51:12.190Z,5.50
2023-01-09T20:53:39.334Z,5.50
2023-01-09T20:56:07.444Z,5.50
2023-01-09T20:58:34.455Z,5.50
2023-01-09T21:01:08.528Z,5.40
2023-01-09T21:03:35.490Z,5.40
2023-01-09T21:06:06.243Z,5.50
2023-01-09T21:08:33.679Z,5.50
2023-01-09T21:11:00.841Z,5.60
2023-01-09T21:13:28.023Z,5.50
2023-01-09T21:15:59.442Z,5.50
2023-01-09T21:18:26.484Z,5.50
2023-01-09T21:20:53.286Z,5.60
2023-01-09T21:23:20.711Z,5.60
2023-01-09T21:25:48.874Z,5.60
2023-01-09T21:28:17.495Z,5.50
2023-01-09T21:30:49.423Z,5.60
2023-01-09T21:33:20.534Z,5.50
2023-01-09T21:35:57.332Z,5.50
2023-01-09T21:38:25.037Z,5.40
2023-01-09T21:40:52.651Z,5.50
2023-01-09T21:43:45.398Z,5.40
2023-01-09T21:46:32.070Z,5.60
2023-01-09T21:48:59.064Z,5.50
2023-01-09T21:51:26.083Z,5.50
2023-01-09T21:53:52.968Z,5.50
2023-01-09T21:56:19.888Z,5.50
2023-01-09T21:58:46.822Z,5.50
2023-01-09T22:01:13.763Z,5.50
2023-01-09T22:03:40.692Z,5.40
2023-01-09T22:06:07.607Z,5.40
2023-01-09T22:08:34.923Z,5.40
2023-01-09T22:11:02.123Z,5.40
2023-01-09T22:13:28.994Z,5.40
2023-01-09T22:15:59.188Z,5.40
2023-01-09T22:18:26.072Z,5.40
2023-01-09T22:20:53.135Z,5.40
2023-01-09T22:23:20.004Z,5.40
2023-01-09T22:25:47.558Z,5.30
2023-01-09T22:28:14.440Z,5.30
2023-01-09T22:30:41.810Z,5.30
2023-01-09T22:33:10.758Z,5.30
2023-01-09T22:35:38.281Z,5.30
2023-01-09T22:38:05.137Z,5.30
2023-01-09T22:40:32.273Z,5.40
2023-01-09T22:42:59.161Z,5.30
2023-01-09T22:45:26.060Z,5.30
2023-01-09T22:47:52.852Z,5.30
2023-01-09T22:50:19.812Z,5.30
2023-01-09T22:52:48.522Z,5.20
2023-01-09T22:55:15.862Z,5.20
2023-01-09T22:57:42.790Z,5.30
2023-01-09T23:00:10.736Z,5.20
2023-01-09T23:02:37.653Z,5.20
2023-01-09T23:05:04.694Z,5.20
2023-01-09T23:07:31.544Z,5.20
2023-01-09T23:10:00.554Z,5.20
2023-01-09T23:12:27.767Z,5.20
2023-01-09T23:14:54.587Z,5.10
2023-01-09T23:17:21.395Z,5.20
2023-01-09T23:19:48.256Z,5.20
2023-01-09T23:22:15.034Z,5.20
2023-01-09T23:24:41.880Z,5.20
2023-01-09T23:27:08.835Z,5.20
2023-01-09T23:29:39.531Z,5.10
2023-01-09T23:32:07.003Z,5.20
2023-01-09T23:34:33.868Z,5.20
2023-01-09T23:37:00.903Z,5.20
2023-01-09T23:39:27.894Z,5.20
2023-01-09T23:42:13.643Z,5.20
2023-01-09T23:44:40.632Z,5.20
2023-01-09T23:47:07.430Z,5.20
2023-01-09T23:49:34.359Z,5.20
2023-01-09T23:52:04.949Z,5.20
2023-01-09T23:54:32.151Z,5.20
2023-01-09T23:56:59.245Z,5.10
2023-01-09T23:59:26.124Z,5.10
